sensor_id;sensor_type;location;lat;lon;timestamp;P1;durP1;ratioP1;P2;durP2;ratioP2
31438;SDS011;18062;48.872;9.220;2022-12-18T00:01:31;1.27;;;1.17;;
31438;SDS011;18062;48.872;9.220;2022-12-18T00:03:58;1.10;;;1.10;;
31438;SDS011;18062;48.872;9.220;2022-12-18T00:06:25;1.60;;;1.47;;
31438;SDS011;18062;48.872;9.220;2022-12-18T00:08:51;1.13;;;1.13;;
31438;SDS011;18062;48.872;9.220;2022-12-18T00:11:18;0.60;;;0.60;;
31438;SDS011;18062;48.872;9.220;2022-12-18T00:13:45;1.00;;;1.00;;
31438;SDS011;18062;48.872;9.220;2022-12-18T00:16:13;3.10;;;1.70;;
31438;SDS011;18062;48.872;9.220;2022-12-18T00:18:39;1.83;;;1.73;;
31438;SDS011;18062;48.872;9.220;2022-12-18T00:21:07;1.30;;;1.30;;
31438;SDS011;18062;48.872;9.220;2022-12-18T00:23:34;1.33;;;1.23;;
31438;SDS011;18062;48.872;9.220;2022-12-18T00:26:04;0.50;;;0.50;;
31438;SDS011;18062;48.872;9.220;2022-12-18T00:28:30;1.20;;;1.20;;
31438;SDS011;18062;48.872;9.220;2022-12-18T00:31:04;0.70;;;0.70;;
31438;SDS011;18062;48.872;9.220;2022-12-18T00:33:30;1.67;;;1.30;;
31438;SDS011;18062;48.872;9.220;2022-12-18T00:36:00;0.50;;;0.50;;
31438;SDS011;18062;48.872;9.220;2022-12-18T00:38:26;1.50;;;1.40;;
31438;SDS011;18062;48.872;9.220;2022-12-18T00:40:53;4.83;;;1.40;;
31438;SDS011;18062;48.872;9.220;2022-12-18T00:43:19;3.23;;;1.37;;
31438;SDS011;18062;48.872;9.220;2022-12-18T00:45:45;1.03;;;0.90;;
31438;SDS011;18062;48.872;9.220;2022-12-18T00:48:11;1.07;;;1.07;;
31438;SDS011;18062;48.872;9.220;2022-12-18T00:50:37;1.17;;;1.17;;
31438;SDS011;18062;48.872;9.220;2022-12-18T00:53:03;2.07;;;1.93;;
31438;SDS011;18062;48.872;9.220;2022-12-18T00:55:29;1.27;;;1.27;;
31438;SDS011;18062;48.872;9.220;2022-12-18T00:57:55;1.80;;;1.70;;
31438;SDS011;18062;48.872;9.220;2022-12-18T01:00:21;4.30;;;1.63;;
31438;SDS011;18062;48.872;9.220;2022-12-18T01:02:47;8.13;;;3.67;;
31438;SDS011;18062;48.872;9.220;2022-12-18T01:05:13;0.70;;;0.70;;
31438;SDS011;18062;48.872;9.220;2022-12-18T01:07:39;0.70;;;0.70;;
31438;SDS011;18062;48.872;9.220;2022-12-18T01:10:06;1.00;;;1.00;;
31438;SDS011;18062;48.872;9.220;2022-12-18T01:12:32;0.87;;;0.87;;
31438;SDS011;18062;48.872;9.220;2022-12-18T01:14:58;6.40;;;2.93;;
31438;SDS011;18062;48.872;9.220;2022-12-18T01:17:24;1.23;;;1.13;;
31438;SDS011;18062;48.872;9.220;2022-12-18T01:19:50;0.83;;;0.83;;
31438;SDS011;18062;48.872;9.220;2022-12-18T01:22:16;3.30;;;1.37;;
31438;SDS011;18062;48.872;9.220;2022-12-18T01:24:42;2.57;;;2.47;;
31438;SDS011;18062;48.872;9.220;2022-12-18T01:27:08;1.13;;;1.10;;
31438;SDS011;18062;48.872;9.220;2022-12-18T01:29:34;3.23;;;1.43;;
31438;SDS011;18062;48.872;9.220;2022-12-18T01:32:00;3.80;;;1.37;;
31438;SDS011;18062;48.872;9.220;2022-12-18T01:34:26;1.13;;;1.13;;
31438;SDS011;18062;48.872;9.220;2022-12-18T01:36:52;1.80;;;1.47;;
31438;SDS011;18062;48.872;9.220;2022-12-18T01:39:19;1.83;;;1.77;;
31438;SDS011;18062;48.872;9.220;2022-12-18T01:41:45;1.33;;;0.97;;
31438;SDS011;18062;48.872;9.220;2022-12-18T01:50:00;0.90;;;0.90;;
31438;SDS011;18062;48.872;9.220;2022-12-18T01:52:28;0.53;;;0.53;;
31438;SDS011;18062;48.872;9.220;2022-12-18T01:54:54;1.23;;;1.23;;
31438;SDS011;18062;48.872;9.220;2022-12-18T01:57:21;0.77;;;0.77;;
31438;SDS011;18062;48.872;9.220;2022-12-18T01:59:49;3.33;;;1.80;;
31438;SDS011;18062;48.872;9.220;2022-12-18T02:02:16;0.33;;;0.33;;
31438;SDS011;18062;48.872;9.220;2022-12-18T02:04:42;6.17;;;2.83;;
31438;SDS011;18062;48.872;9.220;2022-12-18T02:12:45;2.37;;;2.17;;
31438;SDS011;18062;48.872;9.220;2022-12-18T02:15:14;0.73;;;0.73;;
31438;SDS011;18062;48.872;9.220;2022-12-18T02:17:47;2.20;;;1.53;;
31438;SDS011;18062;48.872;9.220;2022-12-18T02:20:27;0.40;;;0.40;;
31438;SDS011;18062;48.872;9.220;2022-12-18T02:28:10;0.40;;;0.40;;
31438;SDS011;18062;48.872;9.220;2022-12-18T02:30:37;0.80;;;0.73;;
31438;SDS011;18062;48.872;9.220;2022-12-18T02:33:04;1.83;;;1.53;;
31438;SDS011;18062;48.872;9.220;2022-12-18T02:35:32;0.67;;;0.67;;
31438;SDS011;18062;48.872;9.220;2022-12-18T02:37:58;1.40;;;1.30;;
31438;SDS011;18062;48.872;9.220;2022-12-18T02:40:26;1.20;;;1.13;;
31438;SDS011;18062;48.872;9.220;2022-12-18T02:42:52;0.50;;;0.50;;
31438;SDS011;18062;48.872;9.220;2022-12-18T02:45:18;1.53;;;1.43;;
31438;SDS011;18062;48.872;9.220;2022-12-18T02:47:46;0.50;;;0.50;;
31438;SDS011;18062;48.872;9.220;2022-12-18T02:52:55;1.23;;;1.13;;
31438;SDS011;18062;48.872;9.220;2022-12-18T02:58:05;1.20;;;1.07;;
31438;SDS011;18062;48.872;9.220;2022-12-18T03:00:37;0.40;;;0.40;;
31438;SDS011;18062;48.872;9.220;2022-12-18T03:03:11;0.60;;;0.60;;
31438;SDS011;18062;48.872;9.220;2022-12-18T03:05:40;1.40;;;1.30;;
31438;SDS011;18062;48.872;9.220;2022-12-18T03:08:07;0.53;;;0.53;;
31438;SDS011;18062;48.872;9.220;2022-12-18T03:10:35;2.10;;;1.27;;
31438;SDS011;18062;48.872;9.220;2022-12-18T03:13:06;5.40;;;1.47;;
31438;SDS011;18062;48.872;9.220;2022-12-18T03:15:37;0.40;;;0.40;;
31438;SDS011;18062;48.872;9.220;2022-12-18T03:18:05;0.83;;;0.83;;
31438;SDS011;18062;48.872;9.220;2022-12-18T03:20:32;0.50;;;0.50;;
31438;SDS011;18062;48.872;9.220;2022-12-18T03:23:07;0.67;;;0.67;;
31438;SDS011;18062;48.872;9.220;2022-12-18T03:25:35;1.23;;;0.90;;
31438;SDS011;18062;48.872;9.220;2022-12-18T03:28:03;0.87;;;0.87;;
31438;SDS011;18062;48.872;9.220;2022-12-18T03:30:33;0.50;;;0.50;;
31438;SDS011;18062;48.872;9.220;2022-12-18T03:33:02;0.40;;;0.40;;
31438;SDS011;18062;48.872;9.220;2022-12-18T03:35:31;0.53;;;0.53;;
31438;SDS011;18062;48.872;9.220;2022-12-18T03:37:59;1.33;;;1.27;;
31438;SDS011;18062;48.872;9.220;2022-12-18T03:40:26;1.03;;;1.03;;
31438;SDS011;18062;48.872;9.220;2022-12-18T03:43:03;0.83;;;0.83;;
31438;SDS011;18062;48.872;9.220;2022-12-18T03:45:34;0.47;;;0.47;;
31438;SDS011;18062;48.872;9.220;2022-12-18T03:48:06;1.33;;;1.33;;
31438;SDS011;18062;48.872;9.220;2022-12-18T03:50:36;1.13;;;1.13;;
31438;SDS011;18062;48.872;9.220;2022-12-18T03:53:18;0.83;;;0.83;;
31438;SDS011;18062;48.872;9.220;2022-12-18T03:55:49;0.50;;;0.50;;
31438;SDS011;18062;48.872;9.220;2022-12-18T03:58:17;0.40;;;0.40;;
31438;SDS011;18062;48.872;9.220;2022-12-18T04:00:43;4.63;;;2.50;;
31438;SDS011;18062;48.872;9.220;2022-12-18T04:03:09;1.03;;;1.03;;
31438;SDS011;18062;48.872;9.220;2022-12-18T04:05:36;1.70;;;1.47;;
31438;SDS011;18062;48.872;9.220;2022-12-18T04:08:03;0.73;;;0.73;;
31438;SDS011;18062;48.872;9.220;2022-12-18T04:10:29;1.10;;;1.00;;
31438;SDS011;18062;48.872;9.220;2022-12-18T04:12:55;0.40;;;0.40;;
31438;SDS011;18062;48.872;9.220;2022-12-18T04:15:22;0.97;;;0.97;;
31438;SDS011;18062;48.872;9.220;2022-12-18T04:17:48;1.93;;;1.83;;
31438;SDS011;18062;48.872;9.220;2022-12-18T04:20:15;0.40;;;0.40;;
31438;SDS011;18062;48.872;9.220;2022-12-18T04:22:41;1.13;;;1.13;;
31438;SDS011;18062;48.872;9.220;2022-12-18T04:25:07;0.40;;;0.40;;
31438;SDS011;18062;48.872;9.220;2022-12-18T04:27:36;1.23;;;1.13;;
31438;SDS011;18062;48.872;9.220;2022-12-18T04:30:02;0.40;;;0.40;;
31438;SDS011;18062;48.872;9.220;2022-12-18T04:32:28;0.40;;;0.40;;
31438;SDS011;18062;48.872;9.220;2022-12-18T04:34:54;0.93;;;0.90;;
31438;SDS011;18062;48.872;9.220;2022-12-18T04:37:20;1.03;;;0.80;;
31438;SDS011;18062;48.872;9.220;2022-12-18T04:39:46;0.97;;;0.97;;
31438;SDS011;18062;48.872;9.220;2022-12-18T04:42:12;0.93;;;0.93;;
31438;SDS011;18062;48.872;9.220;2022-12-18T04:44:38;0.60;;;0.60;;
31438;SDS011;18062;48.872;9.220;2022-12-18T04:47:04;1.10;;;1.10;;
31438;SDS011;18062;48.872;9.220;2022-12-18T04:49:30;1.30;;;1.27;;
31438;SDS011;18062;48.872;9.220;2022-12-18T04:51:56;0.60;;;0.60;;
31438;SDS011;18062;48.872;9.220;2022-12-18T04:54:22;0.40;;;0.40;;
31438;SDS011;18062;48.872;9.220;2022-12-18T04:56:48;0.60;;;0.60;;
31438;SDS011;18062;48.872;9.220;2022-12-18T04:59:14;0.43;;;0.43;;
31438;SDS011;18062;48.872;9.220;2022-12-18T05:01:40;0.70;;;0.70;;
31438;SDS011;18062;48.872;9.220;2022-12-18T05:04:06;0.77;;;0.77;;
31438;SDS011;18062;48.872;9.220;2022-12-18T05:06:32;0.40;;;0.40;;
31438;SDS011;18062;48.872;9.220;2022-12-18T05:08:58;0.93;;;0.93;;
31438;SDS011;18062;48.872;9.220;2022-12-18T05:11:24;0.40;;;0.40;;
31438;SDS011;18062;48.872;9.220;2022-12-18T05:13:50;0.60;;;0.60;;
31438;SDS011;18062;48.872;9.220;2022-12-18T05:16:16;0.73;;;0.73;;
31438;SDS011;18062;48.872;9.220;2022-12-18T05:18:42;0.40;;;0.40;;
31438;SDS011;18062;48.872;9.220;2022-12-18T05:21:08;0.80;;;0.80;;
31438;SDS011;18062;48.872;9.220;2022-12-18T05:23:34;0.50;;;0.50;;
31438;SDS011;18062;48.872;9.220;2022-12-18T05:26:01;1.37;;;1.27;;
31438;SDS011;18062;48.872;9.220;2022-12-18T05:28:28;0.30;;;0.30;;
31438;SDS011;18062;48.872;9.220;2022-12-18T05:30:55;1.03;;;1.00;;
31438;SDS011;18062;48.872;9.220;2022-12-18T05:33:22;0.30;;;0.30;;
31438;SDS011;18062;48.872;9.220;2022-12-18T05:35:52;1.20;;;0.80;;
31438;SDS011;18062;48.872;9.220;2022-12-18T05:38:19;1.03;;;1.03;;
31438;SDS011;18062;48.872;9.220;2022-12-18T05:40:46;1.63;;;1.53;;
31438;SDS011;18062;48.872;9.220;2022-12-18T05:43:12;0.50;;;0.50;;
31438;SDS011;18062;48.872;9.220;2022-12-18T05:45:38;0.40;;;0.40;;
31438;SDS011;18062;48.872;9.220;2022-12-18T05:48:06;1.70;;;0.83;;
31438;SDS011;18062;48.872;9.220;2022-12-18T05:50:36;0.40;;;0.40;;
31438;SDS011;18062;48.872;9.220;2022-12-18T05:53:03;0.40;;;0.40;;
31438;SDS011;18062;48.872;9.220;2022-12-18T05:55:29;0.60;;;0.60;;
31438;SDS011;18062;48.872;9.220;2022-12-18T05:57:55;0.70;;;0.70;;
31438;SDS011;18062;48.872;9.220;2022-12-18T06:00:21;0.33;;;0.33;;
31438;SDS011;18062;48.872;9.220;2022-12-18T06:02:47;0.40;;;0.40;;
31438;SDS011;18062;48.872;9.220;2022-12-18T06:05:13;2.37;;;1.07;;
31438;SDS011;18062;48.872;9.220;2022-12-18T06:07:39;2.30;;;2.10;;
31438;SDS011;18062;48.872;9.220;2022-12-18T06:10:05;0.43;;;0.43;;
31438;SDS011;18062;48.872;9.220;2022-12-18T06:12:31;1.20;;;1.20;;
31438;SDS011;18062;48.872;9.220;2022-12-18T06:15:00;0.80;;;0.80;;
31438;SDS011;18062;48.872;9.220;2022-12-18T06:17:29;1.13;;;1.13;;
31438;SDS011;18062;48.872;9.220;2022-12-18T06:19:56;1.03;;;1.03;;
31438;SDS011;18062;48.872;9.220;2022-12-18T06:22:22;1.20;;;1.10;;
31438;SDS011;18062;48.872;9.220;2022-12-18T06:24:48;1.90;;;0.87;;
31438;SDS011;18062;48.872;9.220;2022-12-18T06:27:14;1.17;;;0.90;;
31438;SDS011;18062;48.872;9.220;2022-12-18T06:29:40;0.50;;;0.50;;
31438;SDS011;18062;48.872;9.220;2022-12-18T06:32:06;0.33;;;0.33;;
31438;SDS011;18062;48.872;9.220;2022-12-18T06:34:33;0.50;;;0.50;;
31438;SDS011;18062;48.872;9.220;2022-12-18T06:36:59;0.40;;;0.40;;
31438;SDS011;18062;48.872;9.220;2022-12-18T06:39:27;0.60;;;0.60;;
31438;SDS011;18062;48.872;9.220;2022-12-18T06:41:53;1.63;;;1.43;;
31438;SDS011;18062;48.872;9.220;2022-12-18T06:44:19;2.10;;;1.23;;
31438;SDS011;18062;48.872;9.220;2022-12-18T06:46:45;0.30;;;0.30;;
31438;SDS011;18062;48.872;9.220;2022-12-18T06:49:11;0.60;;;0.60;;
31438;SDS011;18062;48.872;9.220;2022-12-18T06:51:37;1.07;;;1.07;;
31438;SDS011;18062;48.872;9.220;2022-12-18T06:54:03;1.90;;;1.80;;
31438;SDS011;18062;48.872;9.220;2022-12-18T06:56:30;2.27;;;1.90;;
31438;SDS011;18062;48.872;9.220;2022-12-18T06:58:56;1.20;;;1.10;;
31438;SDS011;18062;48.872;9.220;2022-12-18T07:01:22;0.63;;;0.63;;
31438;SDS011;18062;48.872;9.220;2022-12-18T07:03:51;0.50;;;0.50;;
31438;SDS011;18062;48.872;9.220;2022-12-18T07:06:19;1.00;;;0.70;;
31438;SDS011;18062;48.872;9.220;2022-12-18T07:08:46;1.23;;;0.93;;
31438;SDS011;18062;48.872;9.220;2022-12-18T07:11:12;1.50;;;1.40;;
31438;SDS011;18062;48.872;9.220;2022-12-18T07:13:38;0.97;;;0.97;;
31438;SDS011;18062;48.872;9.220;2022-12-18T07:16:08;1.23;;;1.23;;
31438;SDS011;18062;48.872;9.220;2022-12-18T07:18:34;0.97;;;0.90;;
31438;SDS011;18062;48.872;9.220;2022-12-18T07:21:11;1.60;;;1.50;;
31438;SDS011;18062;48.872;9.220;2022-12-18T07:23:37;4.17;;;2.00;;
31438;SDS011;18062;48.872;9.220;2022-12-18T07:26:05;1.37;;;1.37;;
31438;SDS011;18062;48.872;9.220;2022-12-18T07:28:32;0.60;;;0.60;;
31438;SDS011;18062;48.872;9.220;2022-12-18T07:30:58;0.40;;;0.40;;
31438;SDS011;18062;48.872;9.220;2022-12-18T07:33:24;0.40;;;0.40;;
31438;SDS011;18062;48.872;9.220;2022-12-18T07:35:53;1.10;;;1.10;;
31438;SDS011;18062;48.872;9.220;2022-12-18T07:38:20;0.80;;;0.80;;
31438;SDS011;18062;48.872;9.220;2022-12-18T07:40:46;1.57;;;1.47;;
31438;SDS011;18062;48.872;9.220;2022-12-18T07:43:12;0.50;;;0.50;;
31438;SDS011;18062;48.872;9.220;2022-12-18T07:45:38;2.13;;;1.07;;
31438;SDS011;18062;48.872;9.220;2022-12-18T07:48:04;0.43;;;0.43;;
31438;SDS011;18062;48.872;9.220;2022-12-18T07:50:30;0.73;;;0.73;;
31438;SDS011;18062;48.872;9.220;2022-12-18T07:52:56;1.07;;;1.07;;
31438;SDS011;18062;48.872;9.220;2022-12-18T07:55:22;1.30;;;0.83;;
31438;SDS011;18062;48.872;9.220;2022-12-18T07:57:48;0.90;;;0.90;;
31438;SDS011;18062;48.872;9.220;2022-12-18T08:00:14;0.77;;;0.77;;
31438;SDS011;18062;48.872;9.220;2022-12-18T08:02:41;0.50;;;0.50;;
31438;SDS011;18062;48.872;9.220;2022-12-18T08:05:07;0.40;;;0.40;;
31438;SDS011;18062;48.872;9.220;2022-12-18T08:07:33;0.40;;;0.40;;
31438;SDS011;18062;48.872;9.220;2022-12-18T08:09:59;3.00;;;1.73;;
31438;SDS011;18062;48.872;9.220;2022-12-18T08:12:25;0.70;;;0.70;;
31438;SDS011;18062;48.872;9.220;2022-12-18T08:14:51;0.40;;;0.40;;
31438;SDS011;18062;48.872;9.220;2022-12-18T08:17:17;0.53;;;0.53;;
31438;SDS011;18062;48.872;9.220;2022-12-18T08:19:44;0.57;;;0.57;;
31438;SDS011;18062;48.872;9.220;2022-12-18T08:22:10;0.87;;;0.87;;
31438;SDS011;18062;48.872;9.220;2022-12-18T08:24:36;0.67;;;0.67;;
31438;SDS011;18062;48.872;9.220;2022-12-18T08:27:02;0.93;;;0.93;;
31438;SDS011;18062;48.872;9.220;2022-12-18T08:29:28;0.40;;;0.40;;
31438;SDS011;18062;48.872;9.220;2022-12-18T08:31:55;0.60;;;0.60;;
31438;SDS011;18062;48.872;9.220;2022-12-18T08:34:21;0.47;;;0.47;;
31438;SDS011;18062;48.872;9.220;2022-12-18T08:36:47;1.57;;;1.50;;
31438;SDS011;18062;48.872;9.220;2022-12-18T08:39:13;0.90;;;0.90;;
31438;SDS011;18062;48.872;9.220;2022-12-18T08:41:39;0.73;;;0.73;;
31438;SDS011;18062;48.872;9.220;2022-12-18T08:44:06;0.33;;;0.33;;
31438;SDS011;18062;48.872;9.220;2022-12-18T08:46:51;0.73;;;0.73;;
31438;SDS011;18062;48.872;9.220;2022-12-18T08:49:17;0.50;;;0.50;;
31438;SDS011;18062;48.872;9.220;2022-12-18T08:51:43;0.97;;;0.97;;
31438;SDS011;18062;48.872;9.220;2022-12-18T08:54:12;0.60;;;0.60;;
31438;SDS011;18062;48.872;9.220;2022-12-18T08:56:39;0.60;;;0.60;;
31438;SDS011;18062;48.872;9.220;2022-12-18T08:59:05;0.50;;;0.50;;
31438;SDS011;18062;48.872;9.220;2022-12-18T09:01:31;1.43;;;1.33;;
31438;SDS011;18062;48.872;9.220;2022-12-18T09:03:57;1.70;;;1.60;;
31438;SDS011;18062;48.872;9.220;2022-12-18T09:06:23;5.03;;;2.00;;
31438;SDS011;18062;48.872;9.220;2022-12-18T09:08:51;2.50;;;2.30;;
31438;SDS011;18062;48.872;9.220;2022-12-18T09:11:19;1.70;;;1.60;;
31438;SDS011;18062;48.872;9.220;2022-12-18T09:13:46;4.13;;;2.30;;
31438;SDS011;18062;48.872;9.220;2022-12-18T09:16:12;6.17;;;2.93;;
31438;SDS011;18062;48.872;9.220;2022-12-18T09:18:38;2.40;;;2.00;;
31438;SDS011;18062;48.872;9.220;2022-12-18T09:24:03;3.17;;;2.20;;
31438;SDS011;18062;48.872;9.220;2022-12-18T09:26:29;2.80;;;1.60;;
31438;SDS011;18062;48.872;9.220;2022-12-18T09:28:55;7.83;;;3.53;;
31438;SDS011;18062;48.872;9.220;2022-12-18T09:31:22;4.47;;;2.87;;
31438;SDS011;18062;48.872;9.220;2022-12-18T09:33:49;3.80;;;2.53;;
31438;SDS011;18062;48.872;9.220;2022-12-18T09:36:16;4.70;;;2.63;;
31438;SDS011;18062;48.872;9.220;2022-12-18T09:38:42;7.27;;;4.13;;
31438;SDS011;18062;48.872;9.220;2022-12-18T09:43:47;4.17;;;3.17;;
31438;SDS011;18062;48.872;9.220;2022-12-18T09:46:32;6.30;;;3.43;;
31438;SDS011;18062;48.872;9.220;2022-12-18T09:49:00;4.90;;;3.20;;
31438;SDS011;18062;48.872;9.220;2022-12-18T09:51:33;4.90;;;3.37;;
31438;SDS011;18062;48.872;9.220;2022-12-18T09:54:04;6.37;;;3.10;;
31438;SDS011;18062;48.872;9.220;2022-12-18T09:56:34;5.23;;;3.53;;
31438;SDS011;18062;48.872;9.220;2022-12-18T09:59:01;10.50;;;4.33;;
31438;SDS011;18062;48.872;9.220;2022-12-18T10:01:28;7.10;;;3.47;;
31438;SDS011;18062;48.872;9.220;2022-12-18T10:03:55;9.47;;;4.07;;
31438;SDS011;18062;48.872;9.220;2022-12-18T10:09:16;5.93;;;3.87;;
31438;SDS011;18062;48.872;9.220;2022-12-18T10:14:58;6.87;;;4.17;;
31438;SDS011;18062;48.872;9.220;2022-12-18T10:27:17;6.33;;;2.73;;
31438;SDS011;18062;48.872;9.220;2022-12-18T10:29:44;4.40;;;2.43;;
31438;SDS011;18062;48.872;9.220;2022-12-18T10:32:14;3.00;;;2.20;;
31438;SDS011;18062;48.872;9.220;2022-12-18T10:34:41;3.87;;;2.70;;
31438;SDS011;18062;48.872;9.220;2022-12-18T10:37:09;2.70;;;2.33;;
31438;SDS011;18062;48.872;9.220;2022-12-18T10:39:37;5.47;;;2.60;;
31438;SDS011;18062;48.872;9.220;2022-12-18T10:42:11;1.77;;;1.67;;
31438;SDS011;18062;48.872;9.220;2022-12-18T10:44:40;3.27;;;3.03;;
31438;SDS011;18062;48.872;9.220;2022-12-18T10:47:06;3.53;;;2.80;;
31438;SDS011;18062;48.872;9.220;2022-12-18T10:49:36;2.40;;;2.07;;
31438;SDS011;18062;48.872;9.220;2022-12-18T10:52:14;4.73;;;2.50;;
31438;SDS011;18062;48.872;9.220;2022-12-18T10:54:45;2.70;;;2.50;;
31438;SDS011;18062;48.872;9.220;2022-12-18T10:59:54;5.63;;;2.63;;
31438;SDS011;18062;48.872;9.220;2022-12-18T11:02:27;5.20;;;2.20;;
31438;SDS011;18062;48.872;9.220;2022-12-18T11:04:53;3.17;;;2.37;;
31438;SDS011;18062;48.872;9.220;2022-12-18T11:07:19;4.07;;;2.47;;
31438;SDS011;18062;48.872;9.220;2022-12-18T11:09:45;1.80;;;1.70;;
31438;SDS011;18062;48.872;9.220;2022-12-18T11:12:27;4.30;;;2.40;;
31438;SDS011;18062;48.872;9.220;2022-12-18T11:14:54;4.80;;;2.93;;
31438;SDS011;18062;48.872;9.220;2022-12-18T11:17:29;2.23;;;1.90;;
31438;SDS011;18062;48.872;9.220;2022-12-18T11:19:56;2.60;;;1.30;;
31438;SDS011;18062;48.872;9.220;2022-12-18T11:22:26;2.13;;;1.47;;
31438;SDS011;18062;48.872;9.220;2022-12-18T11:24:57;4.07;;;1.60;;
31438;SDS011;18062;48.872;9.220;2022-12-18T11:27:27;4.83;;;2.43;;
31438;SDS011;18062;48.872;9.220;2022-12-18T11:30:06;8.87;;;2.53;;
31438;SDS011;18062;48.872;9.220;2022-12-18T11:32:44;1.50;;;1.40;;
31438;SDS011;18062;48.872;9.220;2022-12-18T11:35:13;5.73;;;2.03;;
31438;SDS011;18062;48.872;9.220;2022-12-18T11:37:41;4.47;;;2.40;;
31438;SDS011;18062;48.872;9.220;2022-12-18T11:40:19;1.90;;;1.77;;
31438;SDS011;18062;48.872;9.220;2022-12-18T11:43:02;3.10;;;1.30;;
31438;SDS011;18062;48.872;9.220;2022-12-18T11:45:34;4.90;;;3.17;;
31438;SDS011;18062;48.872;9.220;2022-12-18T11:48:44;3.13;;;2.30;;
31438;SDS011;18062;48.872;9.220;2022-12-18T11:50:52;4.60;;;2.60;;
31438;SDS011;18062;48.872;9.220;2022-12-18T11:53:19;1.00;;;1.00;;
31438;SDS011;18062;48.872;9.220;2022-12-18T12:01:03;3.00;;;2.10;;
31438;SDS011;18062;48.872;9.220;2022-12-18T12:03:51;2.57;;;1.70;;
31438;SDS011;18062;48.872;9.220;2022-12-18T12:06:26;2.13;;;2.03;;
31438;SDS011;18062;48.872;9.220;2022-12-18T12:17:21;3.60;;;2.47;;
31438;SDS011;18062;48.872;9.220;2022-12-18T12:25:49;2.07;;;1.97;;
31438;SDS011;18062;48.872;9.220;2022-12-18T12:27:57;6.50;;;1.80;;
31438;SDS011;18062;48.872;9.220;2022-12-18T12:38:14;3.40;;;2.77;;
31438;SDS011;18062;48.872;9.220;2022-12-18T12:40:48;7.70;;;3.10;;
31438;SDS011;18062;48.872;9.220;2022-12-18T12:45:53;4.07;;;2.63;;
31438;SDS011;18062;48.872;9.220;2022-12-18T12:52:27;7.33;;;2.07;;
31438;SDS011;18062;48.872;9.220;2022-12-18T12:54:17;5.43;;;2.10;;
31438;SDS011;18062;48.872;9.220;2022-12-18T13:07:01;5.63;;;3.47;;
31438;SDS011;18062;48.872;9.220;2022-12-18T13:09:30;5.47;;;3.07;;
31438;SDS011;18062;48.872;9.220;2022-12-18T13:12:01;4.20;;;2.50;;
31438;SDS011;18062;48.872;9.220;2022-12-18T13:14:46;4.97;;;2.33;;
31438;SDS011;18062;48.872;9.220;2022-12-18T13:19:41;5.53;;;2.13;;
31438;SDS011;18062;48.872;9.220;2022-12-18T13:38:23;2.10;;;1.87;;
31438;SDS011;18062;48.872;9.220;2022-12-18T13:45:49;4.63;;;3.33;;
31438;SDS011;18062;48.872;9.220;2022-12-18T13:48:16;2.50;;;1.90;;
31438;SDS011;18062;48.872;9.220;2022-12-18T13:50:43;3.10;;;2.63;;
31438;SDS011;18062;48.872;9.220;2022-12-18T13:53:17;3.73;;;2.37;;
31438;SDS011;18062;48.872;9.220;2022-12-18T13:55:46;2.53;;;2.33;;
31438;SDS011;18062;48.872;9.220;2022-12-18T13:58:12;6.43;;;2.97;;
31438;SDS011;18062;48.872;9.220;2022-12-18T14:00:41;5.57;;;2.67;;
31438;SDS011;18062;48.872;9.220;2022-12-18T14:06:03;10.60;;;3.40;;
31438;SDS011;18062;48.872;9.220;2022-12-18T14:08:36;6.80;;;2.60;;
31438;SDS011;18062;48.872;9.220;2022-12-18T14:11:03;1.43;;;1.33;;
31438;SDS011;18062;48.872;9.220;2022-12-18T14:13:37;3.50;;;2.23;;
31438;SDS011;18062;48.872;9.220;2022-12-18T14:16:05;4.73;;;2.20;;
31438;SDS011;18062;48.872;9.220;2022-12-18T14:21:14;5.13;;;2.23;;
31438;SDS011;18062;48.872;9.220;2022-12-18T14:23:41;2.63;;;2.20;;
31438;SDS011;18062;48.872;9.220;2022-12-18T14:26:26;2.47;;;2.27;;
31438;SDS011;18062;48.872;9.220;2022-12-18T14:28:57;4.07;;;2.37;;
31438;SDS011;18062;48.872;9.220;2022-12-18T14:31:26;3.57;;;2.20;;
31438;SDS011;18062;48.872;9.220;2022-12-18T14:33:53;3.83;;;2.07;;
31438;SDS011;18062;48.872;9.220;2022-12-18T14:36:22;5.97;;;1.93;;
31438;SDS011;18062;48.872;9.220;2022-12-18T14:38:53;4.20;;;2.03;;
31438;SDS011;18062;48.872;9.220;2022-12-18T14:41:19;6.07;;;2.63;;
31438;SDS011;18062;48.872;9.220;2022-12-18T14:43:47;4.63;;;1.67;;
31438;SDS011;18062;48.872;9.220;2022-12-18T14:48:51;2.70;;;1.63;;
31438;SDS011;18062;48.872;9.220;2022-12-18T14:51:18;5.27;;;2.53;;
31438;SDS011;18062;48.872;9.220;2022-12-18T14:53:46;4.40;;;2.53;;
31438;SDS011;18062;48.872;9.220;2022-12-18T14:56:26;2.53;;;2.17;;
31438;SDS011;18062;48.872;9.220;2022-12-18T15:01:22;8.40;;;2.03;;
31438;SDS011;18062;48.872;9.220;2022-12-18T15:03:49;3.23;;;2.43;;
31438;SDS011;18062;48.872;9.220;2022-12-18T15:06:17;1.73;;;1.63;;
31438;SDS011;18062;48.872;9.220;2022-12-18T15:08:45;2.37;;;2.13;;
31438;SDS011;18062;48.872;9.220;2022-12-18T15:13:52;2.00;;;1.83;;
31438;SDS011;18062;48.872;9.220;2022-12-18T15:16:18;2.93;;;2.10;;
31438;SDS011;18062;48.872;9.220;2022-12-18T15:18:44;7.77;;;2.60;;
31438;SDS011;18062;48.872;9.220;2022-12-18T15:21:11;2.77;;;1.53;;
31438;SDS011;18062;48.872;9.220;2022-12-18T15:26:14;1.93;;;1.83;;
31438;SDS011;18062;48.872;9.220;2022-12-18T15:28:45;2.00;;;1.23;;
31438;SDS011;18062;48.872;9.220;2022-12-18T15:33:39;7.77;;;3.07;;
31438;SDS011;18062;48.872;9.220;2022-12-18T15:36:08;2.53;;;2.37;;
31438;SDS011;18062;48.872;9.220;2022-12-18T15:38:35;1.90;;;1.80;;
31438;SDS011;18062;48.872;9.220;2022-12-18T15:41:02;2.67;;;2.50;;
31438;SDS011;18062;48.872;9.220;2022-12-18T15:43:32;3.40;;;1.97;;
31438;SDS011;18062;48.872;9.220;2022-12-18T15:48:27;1.80;;;1.70;;
31438;SDS011;18062;48.872;9.220;2022-12-18T15:50:54;3.67;;;1.80;;
31438;SDS011;18062;48.872;9.220;2022-12-18T15:53:21;1.67;;;1.57;;
31438;SDS011;18062;48.872;9.220;2022-12-18T15:55:48;1.77;;;1.17;;
31438;SDS011;18062;48.872;9.220;2022-12-18T15:58:32;1.00;;;0.97;;
31438;SDS011;18062;48.872;9.220;2022-12-18T16:00:58;1.97;;;1.87;;
31438;SDS011;18062;48.872;9.220;2022-12-18T16:03:25;2.77;;;2.57;;
31438;SDS011;18062;48.872;9.220;2022-12-18T16:05:52;1.83;;;1.63;;
31438;SDS011;18062;48.872;9.220;2022-12-18T16:08:18;1.27;;;1.17;;
31438;SDS011;18062;48.872;9.220;2022-12-18T16:10:44;4.63;;;2.13;;
31438;SDS011;18062;48.872;9.220;2022-12-18T16:13:10;2.07;;;1.67;;
31438;SDS011;18062;48.872;9.220;2022-12-18T16:15:37;3.43;;;2.03;;
31438;SDS011;18062;48.872;9.220;2022-12-18T16:18:03;2.17;;;1.97;;
31438;SDS011;18062;48.872;9.220;2022-12-18T16:20:29;1.20;;;1.20;;
31438;SDS011;18062;48.872;9.220;2022-12-18T16:22:55;0.80;;;0.80;;
31438;SDS011;18062;48.872;9.220;2022-12-18T16:25:25;3.87;;;1.87;;
31438;SDS011;18062;48.872;9.220;2022-12-18T16:27:51;0.87;;;0.87;;
31438;SDS011;18062;48.872;9.220;2022-12-18T16:30:20;2.07;;;1.67;;
31438;SDS011;18062;48.872;9.220;2022-12-18T16:32:47;1.40;;;1.30;;
31438;SDS011;18062;48.872;9.220;2022-12-18T16:35:13;7.60;;;2.57;;
31438;SDS011;18062;48.872;9.220;2022-12-18T16:37:40;1.70;;;1.60;;
31438;SDS011;18062;48.872;9.220;2022-12-18T16:40:10;3.60;;;1.33;;
31438;SDS011;18062;48.872;9.220;2022-12-18T16:42:37;0.90;;;0.90;;
31438;SDS011;18062;48.872;9.220;2022-12-18T16:45:04;1.00;;;1.00;;
31438;SDS011;18062;48.872;9.220;2022-12-18T16:47:30;5.27;;;1.10;;
31438;SDS011;18062;48.872;9.220;2022-12-18T16:49:56;2.13;;;1.90;;
31438;SDS011;18062;48.872;9.220;2022-12-18T16:52:22;1.77;;;1.67;;
31438;SDS011;18062;48.872;9.220;2022-12-18T16:54:48;1.50;;;1.40;;
31438;SDS011;18062;48.872;9.220;2022-12-18T16:57:15;1.97;;;1.73;;
31438;SDS011;18062;48.872;9.220;2022-12-18T16:59:41;2.37;;;2.20;;
31438;SDS011;18062;48.872;9.220;2022-12-18T17:02:12;3.20;;;2.90;;
31438;SDS011;18062;48.872;9.220;2022-12-18T17:04:39;1.13;;;1.13;;
31438;SDS011;18062;48.872;9.220;2022-12-18T17:07:05;3.37;;;2.13;;